Terminal Aerodrome Forecast
Issued by NWS

Home | Current Version | Previous Version | Text Only | Print | Product List | Glossary On
Versions: 1 2 3 4 5 6 7 8 9 10 11 12 13 14 15 16 17 18 19 20
070
FTUS43 KGRR 231741
TAFBTL
TAF
KBTL 231741Z 2318/2418 27007KT P6SM VCTS SCT035CB SCT100
     FM231930 30009KT P6SM SCT040 BKN100
     FM240800 01006KT 5SM BR BKN015
     FM241500 36009KT P6SM OVC025=

USA.gov is the U.S. government's official web portal to all federal, state and local government web resources and services.